createdAt,value
2018-04-20T00:01:02.622Z,7.87
2018-04-20T00:03:32.836Z,5.60
2018-04-20T00:06:02.973Z,7.83
2018-04-20T00:08:32.075Z,11.03
2018-04-20T00:11:01.960Z,8.87
2018-04-20T00:13:31.075Z,8.90
2018-04-20T00:16:00.908Z,10.67
2018-04-20T00:18:32.453Z,11.93
2018-04-20T00:21:02.393Z,9.30
2018-04-20T00:23:31.508Z,11.60
2018-04-20T00:26:00.677Z,5.37
2018-04-20T00:28:30.132Z,7.43
2018-04-20T00:30:59.426Z,12.03
2018-04-20T00:33:28.535Z,7.83
2018-04-20T00:35:57.644Z,8.13
2018-04-20T00:38:27.054Z,9.90
2018-04-20T00:40:56.168Z,13.00
2018-04-20T00:43:26.102Z,15.97
2018-04-20T00:45:55.337Z,12.30
2018-04-20T00:48:24.665Z,9.40
2018-04-20T00:50:53.812Z,16.63
2018-04-20T00:53:23.855Z,14.83
2018-04-20T00:55:53.041Z,11.40
2018-04-20T00:58:22.156Z,10.10
2018-04-20T01:00:51.433Z,10.00
2018-04-20T01:03:21.372Z,9.40
2018-04-20T01:05:50.610Z,8.80
2018-04-20T01:08:20.494Z,11.20
2018-04-20T01:10:50.389Z,15.80
2018-04-20T01:13:20.218Z,8.07
2018-04-20T01:15:49.348Z,13.33
2018-04-20T01:18:19.512Z,8.37
2018-04-20T01:20:48.689Z,8.43
2018-04-20T01:23:17.811Z,7.47
2018-04-20T01:25:46.966Z,12.70
2018-04-20T01:28:16.811Z,12.93
2018-04-20T01:30:45.981Z,8.23
2018-04-20T01:33:16.459Z,17.27
2018-04-20T01:35:45.584Z,11.60
2018-04-20T01:38:16.105Z,10.37
2018-04-20T01:40:46.633Z,10.70
2018-04-20T01:43:16.616Z,9.03
2018-04-20T01:45:45.772Z,6.80
2018-04-20T01:48:15.741Z,9.10
2018-04-20T01:50:44.860Z,13.30
2018-04-20T01:53:14.200Z,10.30
2018-04-20T01:55:43.311Z,8.90
2018-04-20T01:58:12.530Z,17.43
2018-04-20T02:00:41.661Z,11.43
2018-04-20T02:03:13.207Z,23.83
2018-04-20T02:05:42.340Z,11.67
2018-04-20T02:08:11.767Z,10.07
2018-04-20T02:10:41.571Z,9.10
2018-04-20T02:13:10.710Z,12.53
2018-04-20T02:15:39.840Z,12.00
2018-04-20T02:18:09.772Z,13.43
2018-04-20T02:20:38.863Z,16.63
2018-04-20T02:23:07.988Z,8.27
2018-04-20T02:25:37.199Z,24.40
2018-04-20T02:28:07.118Z,8.67
2018-04-20T02:30:36.353Z,11.70
2018-04-20T02:33:06.279Z,8.07
2018-04-20T02:35:36.124Z,9.00
2018-04-20T02:38:05.635Z,15.53
2018-04-20T02:40:34.720Z,7.80
2018-04-20T02:43:03.833Z,13.50
2018-04-20T02:45:33.692Z,9.13
2018-04-20T02:48:04.504Z,11.90
2018-04-20T02:50:33.750Z,12.90
2018-04-20T02:53:02.892Z,13.63
2018-04-20T02:55:32.039Z,14.67
2018-04-20T02:58:01.136Z,12.03
2018-04-20T03:00:30.309Z,11.87
2018-04-20T03:02:59.417Z,17.60
2018-04-20T03:05:29.311Z,11.70
2018-04-20T03:07:58.462Z,19.23
2018-04-20T03:10:27.807Z,12.20
2018-04-20T03:12:56.907Z,13.03
2018-04-20T03:15:26.375Z,12.60
2018-04-20T03:17:55.474Z,13.73
2018-04-20T03:20:25.433Z,14.27
2018-04-20T03:22:54.785Z,14.20
2018-04-20T03:25:23.864Z,11.23
2018-04-20T03:27:53.706Z,13.20
2018-04-20T03:30:22.809Z,15.00
2018-04-20T03:32:51.941Z,12.83
2018-04-20T03:35:22.703Z,10.33
2018-04-20T03:37:51.817Z,9.10
2018-04-20T03:40:20.931Z,10.00
2018-04-20T03:42:50.040Z,6.13
2018-04-20T03:45:19.197Z,13.10
2018-04-20T03:47:48.292Z,11.37
2018-04-20T03:50:17.534Z,8.97
2018-04-20T03:52:46.649Z,14.53
2018-04-20T03:55:16.531Z,9.77
2018-04-20T03:57:46.541Z,13.47
2018-04-20T04:00:15.701Z,11.57
2018-04-20T04:02:44.940Z,13.03
2018-04-20T04:05:14.090Z,13.10
2018-04-20T04:07:44.461Z,21.93
2018-04-20T04:10:13.637Z,19.13
2018-04-20T04:12:42.736Z,11.43
2018-04-20T04:15:12.309Z,28.97
2018-04-20T04:17:59.081Z,14.20
2018-04-20T04:20:37.509Z,14.80
2018-04-20T04:23:24.379Z,25.20
2018-04-20T04:26:11.206Z,19.03
2018-04-20T04:28:41.098Z,20.60
2018-04-20T04:31:10.263Z,32.73
2018-04-20T04:33:39.372Z,26.90
2018-04-20T04:36:08.879Z,22.40
2018-04-20T04:38:38.767Z,23.60
2018-04-20T04:41:07.878Z,22.97
2018-04-20T04:43:36.973Z,22.93
2018-04-20T04:46:06.860Z,32.30
2018-04-20T04:48:36.007Z,48.27
2018-04-20T04:51:06.869Z,47.20
2018-04-20T04:53:36.705Z,45.73
2018-04-20T04:56:06.244Z,103.77
2018-04-20T04:58:35.324Z,93.53
2018-04-20T05:01:04.598Z,99.23
2018-04-20T05:03:34.627Z,104.13
2018-04-20T05:06:03.737Z,82.40
2018-04-20T05:08:32.865Z,102.27
2018-04-20T05:11:02.742Z,85.43
2018-04-20T05:13:31.884Z,62.37
2018-04-20T05:16:01.012Z,41.33
2018-04-20T05:18:30.125Z,18.90
2018-04-20T05:20:59.231Z,27.57
2018-04-20T05:23:29.856Z,32.93
2018-04-20T05:26:01.193Z,31.80
2018-04-20T05:28:30.329Z,18.07
2018-04-20T05:31:00.207Z,20.73
2018-04-20T05:33:30.133Z,30.43
2018-04-20T05:36:00.188Z,31.17
2018-04-20T05:38:29.361Z,21.57
2018-04-20T05:40:59.363Z,23.47
2018-04-20T05:43:28.484Z,15.83
2018-04-20T05:45:58.370Z,15.60
2018-04-20T05:48:27.572Z,42.00
2018-04-20T05:50:57.332Z,22.27
2018-04-20T05:53:27.660Z,24.20
2018-04-20T05:55:56.860Z,27.93
2018-04-20T05:58:26.009Z,21.93
2018-04-20T06:00:55.929Z,16.23
2018-04-20T06:03:25.032Z,30.73
2018-04-20T06:05:54.921Z,31.17
2018-04-20T06:08:24.048Z,19.83
2018-04-20T06:10:53.898Z,38.07
2018-04-20T06:13:23.027Z,36.00
2018-04-20T06:15:52.461Z,78.73
2018-04-20T06:18:22.342Z,29.70
2018-04-20T06:20:51.518Z,19.80
2018-04-20T06:23:21.340Z,22.80
2018-04-20T06:25:50.456Z,13.23
2018-04-20T06:28:19.982Z,39.87
2018-04-20T06:30:49.098Z,39.80
2018-04-20T06:33:18.965Z,22.00
2018-04-20T06:35:48.208Z,19.10
2018-04-20T06:38:17.361Z,23.20
2018-04-20T06:40:46.448Z,36.53
2018-04-20T06:43:15.561Z,57.80
2018-04-20T06:45:44.713Z,45.97
2018-04-20T06:48:13.849Z,28.03
2018-04-20T06:50:42.989Z,26.43
2018-04-20T06:53:12.890Z,98.10
2018-04-20T06:55:42.776Z,22.83
2018-04-20T06:58:11.956Z,46.03
2018-04-20T07:00:41.132Z,23.13
2018-04-20T07:03:10.249Z,14.70
2018-04-20T07:05:39.352Z,33.63
2018-04-20T07:08:08.485Z,22.47
2018-04-20T07:10:37.608Z,16.63
2018-04-20T07:13:06.743Z,24.43
2018-04-20T07:15:35.857Z,20.00
2018-04-20T07:18:05.271Z,25.50
2018-04-20T07:20:34.415Z,22.43
2018-04-20T07:23:03.514Z,15.43
2018-04-20T07:25:32.646Z,16.57
2018-04-20T07:28:01.761Z,21.03
2018-04-20T07:30:30.880Z,15.90
2018-04-20T07:33:00.766Z,12.70
2018-04-20T07:35:29.868Z,17.80
2018-04-20T07:37:58.989Z,20.53
2018-04-20T07:40:28.861Z,24.43
2018-04-20T07:42:57.994Z,20.77
2018-04-20T07:45:27.864Z,20.37
2018-04-20T07:47:57.004Z,18.60
2018-04-20T07:50:26.877Z,17.07
2018-04-20T07:52:56.002Z,10.93
2018-04-20T07:55:25.891Z,19.60
2018-04-20T07:57:55.030Z,24.20
2018-04-20T08:00:24.214Z,42.53
2018-04-20T08:02:53.309Z,44.40
2018-04-20T08:05:23.200Z,22.80
2018-04-20T08:07:52.331Z,22.70
2018-04-20T08:10:21.438Z,17.80
2018-04-20T08:12:50.553Z,18.80
2018-04-20T08:15:19.672Z,13.10
2018-04-20T08:17:48.785Z,13.00
2018-04-20T08:20:17.924Z,26.27
2018-04-20T08:22:47.047Z,28.33
2018-04-20T08:25:16.166Z,15.27
2018-04-20T08:27:45.273Z,13.97
2018-04-20T08:30:14.413Z,28.03
2018-04-20T08:32:43.508Z,15.60
2018-04-20T08:35:12.628Z,14.63
2018-04-20T08:37:41.750Z,14.53
2018-04-20T08:40:10.870Z,12.33
2018-04-20T08:42:40.010Z,17.67
2018-04-20T08:45:09.105Z,17.13
2018-04-20T08:47:38.224Z,21.27
2018-04-20T08:50:07.335Z,13.93
2018-04-20T08:52:36.458Z,13.03
2018-04-20T08:55:05.573Z,17.10
2018-04-20T08:57:35.444Z,33.57
2018-04-20T09:00:04.828Z,31.10
2018-04-20T09:02:33.929Z,15.07
2018-04-20T09:05:03.066Z,13.07
2018-04-20T09:07:32.929Z,12.77
2018-04-20T09:10:02.062Z,16.13
2018-04-20T09:12:31.969Z,10.70
2018-04-20T09:15:01.106Z,15.83
2018-04-20T09:17:30.965Z,21.67
2018-04-20T09:20:00.113Z,13.70
2018-04-20T09:22:29.221Z,12.73
2018-04-20T09:24:59.115Z,13.20
2018-04-20T09:27:28.248Z,12.87
2018-04-20T09:29:57.366Z,15.13
2018-04-20T09:32:26.481Z,7.47
2018-04-20T09:34:55.574Z,15.43
2018-04-20T09:37:24.694Z,12.10
2018-04-20T09:39:54.565Z,14.67
2018-04-20T09:42:23.702Z,14.37
2018-04-20T09:44:52.816Z,10.70
2018-04-20T09:47:22.954Z,13.00
2018-04-20T09:49:52.056Z,15.83
2018-04-20T09:52:21.165Z,14.70
2018-04-20T09:54:50.265Z,12.30
2018-04-20T09:57:19.381Z,16.77
2018-04-20T09:59:49.148Z,11.40
2018-04-20T10:02:18.248Z,13.07
2018-04-20T10:04:51.174Z,14.60
2018-04-20T10:07:20.267Z,12.53
2018-04-20T10:09:49.427Z,15.43
2018-04-20T10:12:18.513Z,16.50
2018-04-20T10:14:47.641Z,15.97
2018-04-20T10:17:16.765Z,20.20
2018-04-20T10:19:45.882Z,18.93
2018-04-20T10:22:15.003Z,11.57
2018-04-20T10:24:45.354Z,14.00
2018-04-20T10:27:14.468Z,16.53
2018-04-20T10:29:43.565Z,12.40
2018-04-20T10:32:12.687Z,17.77
2018-04-20T10:34:42.555Z,13.13
2018-04-20T10:37:12.094Z,11.60
2018-04-20T10:39:41.162Z,13.40
2018-04-20T10:42:10.303Z,10.00
2018-04-20T10:44:40.173Z,13.80
2018-04-20T10:47:09.304Z,10.83
2018-04-20T10:49:38.399Z,12.90
2018-04-20T10:52:07.500Z,14.63
2018-04-20T10:54:37.399Z,13.20
2018-04-20T10:57:07.268Z,13.93
2018-04-20T10:59:37.005Z,12.60
2018-04-20T11:02:06.122Z,11.40
2018-04-20T11:04:35.261Z,11.50
2018-04-20T11:07:04.388Z,14.00
2018-04-20T11:09:33.504Z,9.13
2018-04-20T11:12:02.644Z,12.67
2018-04-20T11:14:31.722Z,10.43
2018-04-20T11:17:00.842Z,10.60
2018-04-20T11:19:31.049Z,13.20
2018-04-20T11:22:00.158Z,12.67
2018-04-20T11:24:29.278Z,11.90
2018-04-20T11:26:58.400Z,15.17
2018-04-20T11:29:27.501Z,11.47
2018-04-20T11:31:56.634Z,10.20
2018-04-20T11:34:25.762Z,12.00
2018-04-20T11:36:54.911Z,9.80
2018-04-20T11:39:24.023Z,10.70
2018-04-20T11:41:53.151Z,8.63
2018-04-20T11:44:22.267Z,11.90
2018-04-20T11:46:51.395Z,10.77
2018-04-20T11:49:20.514Z,8.30
2018-04-20T11:51:49.676Z,10.10
2018-04-20T11:54:18.816Z,10.00
2018-04-20T11:56:47.925Z,12.73
2018-04-20T11:59:17.055Z,9.00
2018-04-20T12:01:46.173Z,20.20
2018-04-20T12:04:15.315Z,11.53
2018-04-20T12:06:44.422Z,11.77
2018-04-20T12:09:17.957Z,7.90
2018-04-20T12:11:47.065Z,8.83
2018-04-20T12:14:16.934Z,8.53
2018-04-20T12:16:46.062Z,10.50
2018-04-20T12:19:15.188Z,7.13
2018-04-20T12:21:45.078Z,8.40
2018-04-20T12:24:14.339Z,8.33
2018-04-20T12:26:43.477Z,13.90
2018-04-20T12:29:12.594Z,8.50
2018-04-20T12:31:42.477Z,12.10
2018-04-20T12:34:11.585Z,12.07
2018-04-20T12:36:40.717Z,10.93
2018-04-20T12:39:09.825Z,15.77
2018-04-20T12:41:38.938Z,10.33
2018-04-20T12:44:08.099Z,11.33
2018-04-20T12:46:37.252Z,11.00
2018-04-20T12:49:06.376Z,11.70
2018-04-20T12:51:36.257Z,10.87
2018-04-20T12:54:06.679Z,5.80
2018-04-20T12:56:35.966Z,7.57
2018-04-20T12:59:05.065Z,8.50
2018-04-20T13:01:34.780Z,6.33
2018-04-20T13:04:03.944Z,8.30
2018-04-20T13:06:33.298Z,10.13
2018-04-20T13:09:02.438Z,10.23
2018-04-20T13:11:32.301Z,7.40
2018-04-20T13:14:01.452Z,9.97
2018-04-20T13:16:30.606Z,11.63
2018-04-20T13:18:59.736Z,12.63
2018-04-20T13:21:29.127Z,9.27
2018-04-20T13:23:58.188Z,10.37
2018-04-20T13:26:28.243Z,11.30
2018-04-20T13:28:58.110Z,8.20
2018-04-20T13:31:27.225Z,12.40
2018-04-20T13:33:57.738Z,15.40
2018-04-20T13:36:26.855Z,9.43
2018-04-20T13:38:56.895Z,7.83
2018-04-20T13:41:26.744Z,8.40
2018-04-20T13:43:55.866Z,7.97
2018-04-20T13:46:26.253Z,10.90
2018-04-20T13:48:55.408Z,7.50
2018-04-20T13:51:24.523Z,13.90
2018-04-20T13:53:53.662Z,7.07
2018-04-20T13:56:23.586Z,8.00
2018-04-20T13:58:53.566Z,10.70
2018-04-20T14:01:22.755Z,7.73
2018-04-20T14:03:52.632Z,7.80
2018-04-20T14:06:22.424Z,24.70
2018-04-20T14:08:51.573Z,12.93
2018-04-20T14:11:21.485Z,7.67
2018-04-20T14:13:50.703Z,7.23
2018-04-20T14:16:20.427Z,13.57
2018-04-20T14:18:50.527Z,7.40
2018-04-20T14:21:19.599Z,9.10
2018-04-20T14:23:48.740Z,7.60
2018-04-20T14:26:19.355Z,11.60
2018-04-20T14:28:48.531Z,7.47
2018-04-20T14:31:17.678Z,10.60
2018-04-20T14:33:46.827Z,12.80
2018-04-20T14:36:15.957Z,7.50
2018-04-20T14:38:45.098Z,7.73
2018-04-20T14:41:14.211Z,13.90
2018-04-20T14:43:44.173Z,9.73
2018-04-20T14:46:13.281Z,10.13
2018-04-20T14:48:42.474Z,7.83
2018-04-20T14:51:11.580Z,6.40
2018-04-20T14:53:41.513Z,7.90
2018-04-20T14:56:11.588Z,5.70
2018-04-20T14:58:41.488Z,9.83
2018-04-20T15:01:10.623Z,8.20
2018-04-20T15:03:39.725Z,6.10
2018-04-20T15:06:09.414Z,5.63
2018-04-20T15:08:38.501Z,5.90
2018-04-20T15:11:07.643Z,9.00
2018-04-20T15:13:36.753Z,7.90
2018-04-20T15:16:06.660Z,11.73
2018-04-20T15:18:35.841Z,5.70
2018-04-20T15:21:05.043Z,8.73
2018-04-20T15:23:34.142Z,12.98
2018-04-20T15:26:03.390Z,7.62
2018-04-20T15:28:32.546Z,23.83
2018-04-20T15:31:01.679Z,8.55
2018-04-20T15:33:30.915Z,8.98
2018-04-20T15:36:00.034Z,14.95
2018-04-20T15:38:29.169Z,6.10
2018-04-20T15:40:58.326Z,7.05
2018-04-20T15:43:27.409Z,7.05
2018-04-20T15:45:56.561Z,12.37
2018-04-20T15:48:26.424Z,6.97
2018-04-20T15:50:55.582Z,15.63
2018-04-20T15:53:24.711Z,5.07
2018-04-20T15:55:53.823Z,7.70
2018-04-20T15:58:22.980Z,9.95
2018-04-20T16:00:52.080Z,8.35
2018-04-20T16:03:21.181Z,11.15
2018-04-20T16:05:50.330Z,9.23
2018-04-20T16:08:19.450Z,9.23
2018-04-20T16:10:49.326Z,7.75
2018-04-20T16:13:18.436Z,6.15
2018-04-20T16:15:47.562Z,9.55
2018-04-20T16:18:16.701Z,14.55
2018-04-20T16:20:45.824Z,9.35
2018-04-20T16:23:15.065Z,7.87
2018-04-20T16:25:44.917Z,7.50
2018-04-20T16:28:14.313Z,13.85
2018-04-20T16:30:43.401Z,8.85
2018-04-20T16:33:12.540Z,5.83
2018-04-20T16:35:41.633Z,5.30
2018-04-20T16:38:11.543Z,7.43
2018-04-20T16:40:40.668Z,4.82
2018-04-20T16:43:09.844Z,10.03
2018-04-20T16:45:39.725Z,7.55
2018-04-20T16:48:08.872Z,9.50
2018-04-20T16:50:37.985Z,8.47
2018-04-20T16:53:07.128Z,5.20
2018-04-20T16:55:36.264Z,6.57
2018-04-20T16:58:06.844Z,8.37
2018-04-20T17:00:35.974Z,6.27
2018-04-20T17:03:05.897Z,10.00
2018-04-20T17:05:35.781Z,4.73
2018-04-20T17:08:04.905Z,11.53
2018-04-20T17:10:34.809Z,8.97
2018-04-20T17:13:04.699Z,8.50
2018-04-20T17:15:33.830Z,10.60
2018-04-20T17:18:03.781Z,11.70
2018-04-20T17:20:32.896Z,11.70
2018-04-20T17:23:01.988Z,8.27
2018-04-20T17:25:31.131Z,6.50
2018-04-20T17:28:00.241Z,8.17
2018-04-20T17:30:29.358Z,11.33
2018-04-20T17:32:58.528Z,6.60
2018-04-20T17:35:27.607Z,14.00
2018-04-20T17:37:57.493Z,11.70
2018-04-20T17:40:26.615Z,6.00
2018-04-20T17:42:55.754Z,15.20
2018-04-20T17:45:24.901Z,9.40
2018-04-20T17:47:54.991Z,10.73
2018-04-20T17:50:24.544Z,14.93
2018-04-20T17:52:53.653Z,15.50
2018-04-20T17:55:23.564Z,13.27
2018-04-20T17:57:52.889Z,10.70
2018-04-20T18:00:22.798Z,7.50
2018-04-20T18:02:52.694Z,19.97
2018-04-20T18:05:22.566Z,10.10
2018-04-20T18:07:51.679Z,15.33
2018-04-20T18:10:20.862Z,15.47
2018-04-20T18:12:49.983Z,5.83
2018-04-20T18:15:19.900Z,11.97
2018-04-20T18:17:49.830Z,9.80
2018-04-20T18:20:19.716Z,8.00
2018-04-20T18:22:48.952Z,10.40
2018-04-20T18:25:18.246Z,8.87
2018-04-20T18:27:47.382Z,9.83
2018-04-20T18:30:16.527Z,7.63
2018-04-20T18:32:45.677Z,10.57
2018-04-20T18:35:15.272Z,10.00
2018-04-20T18:37:44.389Z,11.83
2018-04-20T18:40:13.512Z,10.63
2018-04-20T18:42:42.687Z,9.40
2018-04-20T18:45:12.517Z,11.20
2018-04-20T18:47:41.668Z,13.87
2018-04-20T18:50:10.898Z,17.63
2018-04-20T18:52:40.710Z,12.60
2018-04-20T18:55:09.823Z,11.70
2018-04-20T18:57:38.917Z,7.33
2018-04-20T19:00:08.066Z,10.63
2018-04-20T19:02:37.186Z,10.80
2018-04-20T19:05:06.349Z,8.33
2018-04-20T19:07:35.449Z,7.17
2018-04-20T19:10:04.629Z,10.23
2018-04-20T19:12:33.849Z,9.03
2018-04-20T19:15:03.433Z,9.03
2018-04-20T19:17:33.324Z,10.10
2018-04-20T19:20:03.356Z,10.27
2018-04-20T19:22:32.468Z,8.33
2018-04-20T19:25:02.389Z,8.23
2018-04-20T19:27:31.510Z,11.70
2018-04-20T19:30:00.648Z,9.50
2018-04-20T19:32:29.772Z,9.90
2018-04-20T19:35:00.257Z,28.33
2018-04-20T19:37:29.381Z,34.73
2018-04-20T19:39:58.528Z,31.90
2018-04-20T19:42:27.683Z,27.20
2018-04-20T19:44:57.586Z,16.70
2018-04-20T19:47:26.714Z,27.20
2018-04-20T19:49:55.835Z,18.57
2018-04-20T19:52:25.669Z,28.03
2018-04-20T19:54:54.770Z,21.10
2018-04-20T19:57:25.275Z,17.73
2018-04-20T19:59:54.417Z,39.13
2018-04-20T20:02:23.621Z,45.80
2018-04-20T20:04:52.741Z,62.30
2018-04-20T20:07:23.096Z,33.43
2018-04-20T20:09:52.260Z,29.10
2018-04-20T20:12:21.458Z,22.50
2018-04-20T20:14:50.574Z,25.00
2018-04-20T20:17:19.687Z,16.67
2018-04-20T20:19:48.824Z,9.80
2018-04-20T20:22:18.719Z,27.47
2018-04-20T20:24:47.858Z,18.30
2018-04-20T20:27:16.998Z,14.50
2018-04-20T20:29:46.113Z,14.67
2018-04-20T20:32:15.275Z,17.23
2018-04-20T20:34:44.406Z,17.13
2018-04-20T20:37:13.530Z,15.40
2018-04-20T20:39:43.425Z,13.07
2018-04-20T20:42:12.516Z,9.87
2018-04-20T20:44:41.657Z,21.47
2018-04-20T20:47:10.802Z,18.27
2018-04-20T20:49:39.941Z,13.27
2018-04-20T20:52:09.055Z,15.93
2018-04-20T20:54:38.940Z,29.93
2018-04-20T20:57:08.865Z,15.20
2018-04-20T20:59:38.145Z,15.10
2018-04-20T21:02:07.325Z,17.20
2018-04-20T21:04:36.447Z,29.20
2018-04-20T21:07:05.579Z,13.13
2018-04-20T21:09:34.704Z,16.40
2018-04-20T21:12:03.817Z,17.30
2018-04-20T21:14:32.978Z,11.13
2018-04-20T21:17:03.044Z,19.50
2018-04-20T21:19:32.952Z,17.33
2018-04-20T21:22:02.072Z,19.90
2018-04-20T21:24:31.278Z,16.93
2018-04-20T21:27:00.398Z,22.30
2018-04-20T21:29:29.541Z,12.23
2018-04-20T21:31:59.451Z,15.53
2018-04-20T21:34:28.573Z,19.13
2018-04-20T21:36:57.692Z,17.20
2018-04-20T21:39:26.808Z,16.77
2018-04-20T21:41:55.942Z,15.53
2018-04-20T21:44:25.066Z,14.23
2018-04-20T21:46:54.206Z,13.87
2018-04-20T21:49:23.340Z,13.83
2018-04-20T21:51:53.789Z,17.80
2018-04-20T21:54:22.902Z,18.93
2018-04-20T21:56:52.064Z,19.73
2018-04-20T21:59:21.945Z,17.40
2018-04-20T22:01:51.090Z,14.13
2018-04-20T22:04:20.229Z,15.87
2018-04-20T22:06:49.378Z,13.03
2018-04-20T22:09:18.497Z,16.93
2018-04-20T22:11:47.657Z,15.87
2018-04-20T22:14:16.866Z,15.53
2018-04-20T22:16:46.041Z,12.00
2018-04-20T22:19:15.247Z,33.73
2018-04-20T22:21:44.377Z,55.77
2018-04-20T22:24:14.378Z,78.97
2018-04-20T22:26:43.523Z,53.10
2018-04-20T22:29:13.429Z,57.67
2018-04-20T22:31:42.637Z,46.13
2018-04-20T22:34:11.922Z,39.10
2018-04-20T22:36:41.044Z,36.67
2018-04-20T22:39:10.269Z,34.50
2018-04-20T22:41:39.384Z,26.20
2018-04-20T22:44:08.537Z,24.43
2018-04-20T22:46:37.892Z,29.47
2018-04-20T22:49:07.025Z,23.50
2018-04-20T22:51:36.470Z,14.70
2018-04-20T22:54:05.610Z,26.37
2018-04-20T22:56:34.777Z,28.27
2018-04-20T22:59:03.916Z,19.60
2018-04-20T23:01:33.811Z,23.00
2018-04-20T23:04:02.939Z,18.50
2018-04-20T23:06:32.094Z,20.00
2018-04-20T23:09:01.223Z,14.37
2018-04-20T23:11:30.349Z,19.13
2018-04-20T23:13:59.475Z,18.90
2018-04-20T23:16:28.561Z,20.13
2018-04-20T23:18:58.558Z,19.73
2018-04-20T23:21:28.365Z,16.97
2018-04-20T23:23:57.510Z,14.70
2018-04-20T23:26:27.388Z,19.30
2018-04-20T23:28:57.280Z,19.37
2018-04-20T23:31:27.206Z,15.63
2018-04-20T23:33:56.733Z,11.90
2018-04-20T23:36:25.860Z,17.33
2018-04-20T23:38:55.007Z,14.73
2018-04-20T23:54:11.376Z,18.87
2018-04-20T23:56:40.517Z,17.90
2018-04-20T23:59:09.622Z,16.60
